sensor_id;sensor_type;location;lat;lon;timestamp;temperature;humidity
6110;DHT22;3085;49.444;11.054;2022-12-18T00:00:11;-6.40;99.90
6110;DHT22;3085;49.444;11.054;2022-12-18T00:02:39;-6.50;99.90
6110;DHT22;3085;49.444;11.054;2022-12-18T00:05:10;-6.50;99.90
6110;DHT22;3085;49.444;11.054;2022-12-18T00:07:37;-6.50;99.90
6110;DHT22;3085;49.444;11.054;2022-12-18T00:10:05;-6.50;99.90
6110;DHT22;3085;49.444;11.054;2022-12-18T00:12:32;-6.40;99.90
6110;DHT22;3085;49.444;11.054;2022-12-18T00:14:59;-6.50;99.90
6110;DHT22;3085;49.444;11.054;2022-12-18T00:17:26;-6.60;99.90
6110;DHT22;3085;49.444;11.054;2022-12-18T00:19:57;-6.60;99.90
6110;DHT22;3085;49.444;11.054;2022-12-18T00:22:24;-6.70;99.90
6110;DHT22;3085;49.444;11.054;2022-12-18T00:24:51;-6.70;99.90
6110;DHT22;3085;49.444;11.054;2022-12-18T00:27:17;-6.60;99.90
6110;DHT22;3085;49.444;11.054;2022-12-18T00:29:45;-6.90;99.90
6110;DHT22;3085;49.444;11.054;2022-12-18T00:32:11;-6.60;99.90
6110;DHT22;3085;49.444;11.054;2022-12-18T00:34:38;-6.60;99.90
6110;DHT22;3085;49.444;11.054;2022-12-18T00:37:06;-6.40;99.90
6110;DHT22;3085;49.444;11.054;2022-12-18T00:39:33;-6.50;99.90
6110;DHT22;3085;49.444;11.054;2022-12-18T00:42:00;-6.50;99.90
6110;DHT22;3085;49.444;11.054;2022-12-18T00:44:45;-6.50;99.90
6110;DHT22;3085;49.444;11.054;2022-12-18T00:47:11;-6.50;99.90
6110;DHT22;3085;49.444;11.054;2022-12-18T00:49:38;-6.50;99.90
6110;DHT22;3085;49.444;11.054;2022-12-18T00:52:09;-6.40;99.90
6110;DHT22;3085;49.444;11.054;2022-12-18T00:54:35;-6.50;99.90
6110;DHT22;3085;49.444;11.054;2022-12-18T00:57:03;-6.50;99.90
6110;DHT22;3085;49.444;11.054;2022-12-18T00:59:29;-6.40;99.90
6110;DHT22;3085;49.444;11.054;2022-12-18T01:01:57;-6.40;99.90
6110;DHT22;3085;49.444;11.054;2022-12-18T01:04:23;-6.40;99.90
6110;DHT22;3085;49.444;11.054;2022-12-18T01:06:50;-6.50;99.90
6110;DHT22;3085;49.444;11.054;2022-12-18T01:09:18;-6.90;99.90
6110;DHT22;3085;49.444;11.054;2022-12-18T01:11:45;-6.50;99.90
6110;DHT22;3085;49.444;11.054;2022-12-18T01:14:12;-6.60;99.90
6110;DHT22;3085;49.444;11.054;2022-12-18T01:16:39;-6.80;99.90
6110;DHT22;3085;49.444;11.054;2022-12-18T01:19:06;-6.20;99.90
6110;DHT22;3085;49.444;11.054;2022-12-18T01:21:33;-7.00;99.90
6110;DHT22;3085;49.444;11.054;2022-12-18T01:24:00;-7.20;99.90
6110;DHT22;3085;49.444;11.054;2022-12-18T01:26:28;-7.10;99.90
6110;DHT22;3085;49.444;11.054;2022-12-18T01:28:56;-7.10;99.90
6110;DHT22;3085;49.444;11.054;2022-12-18T01:31:24;-6.90;99.90
6110;DHT22;3085;49.444;11.054;2022-12-18T01:33:52;-6.90;99.90
6110;DHT22;3085;49.444;11.054;2022-12-18T01:36:21;-6.80;99.90
6110;DHT22;3085;49.444;11.054;2022-12-18T01:38:51;-7.10;99.90
6110;DHT22;3085;49.444;11.054;2022-12-18T01:41:21;-7.20;99.90
6110;DHT22;3085;49.444;11.054;2022-12-18T01:43:53;-7.10;99.90
6110;DHT22;3085;49.444;11.054;2022-12-18T01:46:23;-7.10;99.90
6110;DHT22;3085;49.444;11.054;2022-12-18T01:48:52;-7.00;99.90
6110;DHT22;3085;49.444;11.054;2022-12-18T01:51:20;-6.90;99.90
6110;DHT22;3085;49.444;11.054;2022-12-18T01:53:49;-7.00;99.90
6110;DHT22;3085;49.444;11.054;2022-12-18T01:56:18;-6.80;99.90
6110;DHT22;3085;49.444;11.054;2022-12-18T01:58:54;-7.10;99.90
6110;DHT22;3085;49.444;11.054;2022-12-18T02:01:22;-6.90;99.90
6110;DHT22;3085;49.444;11.054;2022-12-18T02:03:49;-7.00;99.90
6110;DHT22;3085;49.444;11.054;2022-12-18T02:06:21;-7.00;99.90
6110;DHT22;3085;49.444;11.054;2022-12-18T02:09:00;-7.10;99.90
6110;DHT22;3085;49.444;11.054;2022-12-18T02:11:37;-6.90;99.90
6110;DHT22;3085;49.444;11.054;2022-12-18T02:14:15;-6.90;99.90
6110;DHT22;3085;49.444;11.054;2022-12-18T02:16:48;-6.80;99.90
6110;DHT22;3085;49.444;11.054;2022-12-18T02:22:26;-6.70;99.90
6110;DHT22;3085;49.444;11.054;2022-12-18T02:25:03;-5.60;99.90
6110;DHT22;3085;49.444;11.054;2022-12-18T02:27:34;-6.60;99.90
6110;DHT22;3085;49.444;11.054;2022-12-18T02:30:02;-6.60;99.90
6110;DHT22;3085;49.444;11.054;2022-12-18T02:32:32;-6.60;99.90
6110;DHT22;3085;49.444;11.054;2022-12-18T02:35:03;-6.70;99.90
6110;DHT22;3085;49.444;11.054;2022-12-18T02:37:32;-6.80;99.90
6110;DHT22;3085;49.444;11.054;2022-12-18T02:40:00;-6.80;99.90
6110;DHT22;3085;49.444;11.054;2022-12-18T02:42:29;-6.80;99.90
6110;DHT22;3085;49.444;11.054;2022-12-18T02:44:57;-6.70;99.90
6110;DHT22;3085;49.444;11.054;2022-12-18T02:47:29;-6.70;99.90
6110;DHT22;3085;49.444;11.054;2022-12-18T02:50:02;-6.60;99.90
6110;DHT22;3085;49.444;11.054;2022-12-18T02:52:36;-6.60;99.90
6110;DHT22;3085;49.444;11.054;2022-12-18T02:55:16;-6.50;99.90
6110;DHT22;3085;49.444;11.054;2022-12-18T02:57:49;-6.60;99.90
6110;DHT22;3085;49.444;11.054;2022-12-18T03:00:23;-6.40;99.90
6110;DHT22;3085;49.444;11.054;2022-12-18T03:02:56;-6.40;99.90
6110;DHT22;3085;49.444;11.054;2022-12-18T03:05:30;-6.30;99.90
6110;DHT22;3085;49.444;11.054;2022-12-18T03:08:00;-6.20;99.90
6110;DHT22;3085;49.444;11.054;2022-12-18T03:10:33;-6.00;99.90
6110;DHT22;3085;49.444;11.054;2022-12-18T03:13:04;-5.80;99.90
6110;DHT22;3085;49.444;11.054;2022-12-18T03:15:36;-5.80;99.90
6110;DHT22;3085;49.444;11.054;2022-12-18T03:18:06;-5.80;99.90
6110;DHT22;3085;49.444;11.054;2022-12-18T03:20:34;-5.90;99.90
6110;DHT22;3085;49.444;11.054;2022-12-18T03:23:07;-6.00;99.90
6110;DHT22;3085;49.444;11.054;2022-12-18T03:25:38;-6.00;99.90
6110;DHT22;3085;49.444;11.054;2022-12-18T03:28:06;-5.90;99.90
6110;DHT22;3085;49.444;11.054;2022-12-18T03:30:38;-5.90;99.90
6110;DHT22;3085;49.444;11.054;2022-12-18T03:33:08;-5.80;99.90
6110;DHT22;3085;49.444;11.054;2022-12-18T03:35:40;-5.80;99.90
6110;DHT22;3085;49.444;11.054;2022-12-18T03:38:08;-5.70;99.90
6110;DHT22;3085;49.444;11.054;2022-12-18T03:40:43;-5.60;99.90
6110;DHT22;3085;49.444;11.054;2022-12-18T03:43:18;-5.70;99.90
6110;DHT22;3085;49.444;11.054;2022-12-18T03:45:52;-5.60;99.90
6110;DHT22;3085;49.444;11.054;2022-12-18T03:48:26;-5.60;99.90
6110;DHT22;3085;49.444;11.054;2022-12-18T03:50:57;-5.50;99.90
6110;DHT22;3085;49.444;11.054;2022-12-18T03:53:32;-5.60;99.90
6110;DHT22;3085;49.444;11.054;2022-12-18T03:56:02;-5.50;99.90
6110;DHT22;3085;49.444;11.054;2022-12-18T03:58:32;-5.40;99.90
6110;DHT22;3085;49.444;11.054;2022-12-18T04:01:04;-5.40;99.90
6110;DHT22;3085;49.444;11.054;2022-12-18T04:03:32;-5.40;99.90
6110;DHT22;3085;49.444;11.054;2022-12-18T04:06:02;-5.20;99.90
6110;DHT22;3085;49.444;11.054;2022-12-18T04:08:29;-5.20;99.90
6110;DHT22;3085;49.444;11.054;2022-12-18T04:10:56;-5.10;99.90
6110;DHT22;3085;49.444;11.054;2022-12-18T04:13:24;-5.20;99.90
6110;DHT22;3085;49.444;11.054;2022-12-18T04:15:51;-5.10;99.90
6110;DHT22;3085;49.444;11.054;2022-12-18T04:18:19;-5.10;99.90
6110;DHT22;3085;49.444;11.054;2022-12-18T04:20:46;-5.20;99.90
6110;DHT22;3085;49.444;11.054;2022-12-18T04:23:13;-5.20;99.90
6110;DHT22;3085;49.444;11.054;2022-12-18T04:25:40;-5.20;99.90
6110;DHT22;3085;49.444;11.054;2022-12-18T04:28:07;-5.10;99.90
6110;DHT22;3085;49.444;11.054;2022-12-18T04:30:33;-5.10;99.90
6110;DHT22;3085;49.444;11.054;2022-12-18T04:33:00;-5.10;99.90
6110;DHT22;3085;49.444;11.054;2022-12-18T04:35:28;-5.20;99.90
6110;DHT22;3085;49.444;11.054;2022-12-18T04:37:55;-5.10;99.90
6110;DHT22;3085;49.444;11.054;2022-12-18T04:40:22;-5.00;99.90
6110;DHT22;3085;49.444;11.054;2022-12-18T04:42:49;-4.70;99.90
6110;DHT22;3085;49.444;11.054;2022-12-18T04:45:16;-5.00;99.90
6110;DHT22;3085;49.444;11.054;2022-12-18T04:47:42;-5.00;99.90
6110;DHT22;3085;49.444;11.054;2022-12-18T04:50:09;-4.90;99.90
6110;DHT22;3085;49.444;11.054;2022-12-18T04:52:38;-4.90;99.90
6110;DHT22;3085;49.444;11.054;2022-12-18T04:55:05;-4.80;99.90
6110;DHT22;3085;49.444;11.054;2022-12-18T04:57:32;-4.80;99.90
6110;DHT22;3085;49.444;11.054;2022-12-18T04:59:59;-4.80;99.90
6110;DHT22;3085;49.444;11.054;2022-12-18T05:02:25;-4.80;99.90
6110;DHT22;3085;49.444;11.054;2022-12-18T05:04:52;-4.80;99.90
6110;DHT22;3085;49.444;11.054;2022-12-18T05:07:19;-4.80;99.90
6110;DHT22;3085;49.444;11.054;2022-12-18T05:09:47;-4.80;99.90
6110;DHT22;3085;49.444;11.054;2022-12-18T05:12:14;-4.80;99.90
6110;DHT22;3085;49.444;11.054;2022-12-18T05:14:41;-4.60;99.90
6110;DHT22;3085;49.444;11.054;2022-12-18T05:17:08;-4.70;99.90
6110;DHT22;3085;49.444;11.054;2022-12-18T05:19:34;-4.90;99.90
6110;DHT22;3085;49.444;11.054;2022-12-18T05:22:01;-4.70;99.90
6110;DHT22;3085;49.444;11.054;2022-12-18T05:24:28;-4.70;99.90
6110;DHT22;3085;49.444;11.054;2022-12-18T05:26:56;-4.60;99.90
6110;DHT22;3085;49.444;11.054;2022-12-18T05:29:23;-4.60;99.90
6110;DHT22;3085;49.444;11.054;2022-12-18T05:31:50;-4.70;99.90
6110;DHT22;3085;49.444;11.054;2022-12-18T05:34:17;-4.60;99.90
6110;DHT22;3085;49.444;11.054;2022-12-18T05:36:44;-4.40;99.90
6110;DHT22;3085;49.444;11.054;2022-12-18T05:39:11;-4.40;99.90
6110;DHT22;3085;49.444;11.054;2022-12-18T05:41:37;-4.70;99.90
6110;DHT22;3085;49.444;11.054;2022-12-18T05:44:05;-4.70;99.90
6110;DHT22;3085;49.444;11.054;2022-12-18T05:46:32;-4.70;99.90
6110;DHT22;3085;49.444;11.054;2022-12-18T05:48:59;-4.70;99.90
6110;DHT22;3085;49.444;11.054;2022-12-18T05:51:26;-4.60;99.90
6110;DHT22;3085;49.444;11.054;2022-12-18T05:53:53;-4.60;99.90
6110;DHT22;3085;49.444;11.054;2022-12-18T05:56:21;-4.60;99.90
6110;DHT22;3085;49.444;11.054;2022-12-18T05:58:51;-4.50;99.90
6110;DHT22;3085;49.444;11.054;2022-12-18T06:01:22;-4.50;99.90
6110;DHT22;3085;49.444;11.054;2022-12-18T06:03:49;-4.50;99.90
6110;DHT22;3085;49.444;11.054;2022-12-18T06:06:17;-4.50;99.90
6110;DHT22;3085;49.444;11.054;2022-12-18T06:08:45;-4.50;99.90
6110;DHT22;3085;49.444;11.054;2022-12-18T06:11:12;-4.40;99.90
6110;DHT22;3085;49.444;11.054;2022-12-18T06:13:39;-4.30;99.90
6110;DHT22;3085;49.444;11.054;2022-12-18T06:16:06;-4.30;99.90
6110;DHT22;3085;49.444;11.054;2022-12-18T06:18:34;-4.30;99.90
6110;DHT22;3085;49.444;11.054;2022-12-18T06:21:01;-4.30;99.90
6110;DHT22;3085;49.444;11.054;2022-12-18T06:23:28;-4.20;99.90
6110;DHT22;3085;49.444;11.054;2022-12-18T06:25:55;-4.20;99.90
6110;DHT22;3085;49.444;11.054;2022-12-18T06:28:22;-4.20;99.90
6110;DHT22;3085;49.444;11.054;2022-12-18T06:30:49;-4.30;99.90
6110;DHT22;3085;49.444;11.054;2022-12-18T06:33:16;-4.20;99.90
6110;DHT22;3085;49.444;11.054;2022-12-18T06:35:44;-4.20;99.90
6110;DHT22;3085;49.444;11.054;2022-12-18T06:38:12;-4.30;99.90
6110;DHT22;3085;49.444;11.054;2022-12-18T06:40:39;-4.40;99.90
6110;DHT22;3085;49.444;11.054;2022-12-18T06:43:06;-4.30;99.90
6110;DHT22;3085;49.444;11.054;2022-12-18T06:45:33;-4.30;99.90
6110;DHT22;3085;49.444;11.054;2022-12-18T06:48:00;-4.40;99.90
6110;DHT22;3085;49.444;11.054;2022-12-18T06:50:27;-4.30;99.90
6110;DHT22;3085;49.444;11.054;2022-12-18T06:52:55;-4.30;99.90
6110;DHT22;3085;49.444;11.054;2022-12-18T06:55:22;-4.30;99.90
6110;DHT22;3085;49.444;11.054;2022-12-18T06:57:49;-4.20;99.90
6110;DHT22;3085;49.444;11.054;2022-12-18T07:00:16;-4.20;99.90
6110;DHT22;3085;49.444;11.054;2022-12-18T07:02:43;-4.10;99.90
6110;DHT22;3085;49.444;11.054;2022-12-18T07:05:10;-4.10;99.90
6110;DHT22;3085;49.444;11.054;2022-12-18T07:07:37;-4.10;99.90
6110;DHT22;3085;49.444;11.054;2022-12-18T07:10:06;-4.10;99.90
6110;DHT22;3085;49.444;11.054;2022-12-18T07:12:32;-4.00;99.90
6110;DHT22;3085;49.444;11.054;2022-12-18T07:14:59;-4.10;99.90
6110;DHT22;3085;49.444;11.054;2022-12-18T07:17:26;-4.00;99.90
6110;DHT22;3085;49.444;11.054;2022-12-18T07:19:53;-4.00;99.90
6110;DHT22;3085;49.444;11.054;2022-12-18T07:22:20;-4.00;99.90
6110;DHT22;3085;49.444;11.054;2022-12-18T07:24:50;-3.90;99.90
6110;DHT22;3085;49.444;11.054;2022-12-18T07:27:18;-3.90;99.90
6110;DHT22;3085;49.444;11.054;2022-12-18T07:29:45;-4.00;99.90
6110;DHT22;3085;49.444;11.054;2022-12-18T07:32:12;-4.00;99.90
6110;DHT22;3085;49.444;11.054;2022-12-18T07:34:39;-4.00;99.90
6110;DHT22;3085;49.444;11.054;2022-12-18T07:37:06;-4.00;99.90
6110;DHT22;3085;49.444;11.054;2022-12-18T07:39:32;-4.00;99.90
6110;DHT22;3085;49.444;11.054;2022-12-18T07:41:59;-4.10;99.90
6110;DHT22;3085;49.444;11.054;2022-12-18T07:44:45;-4.00;99.90
6110;DHT22;3085;49.444;11.054;2022-12-18T07:47:12;-3.90;99.90
6110;DHT22;3085;49.444;11.054;2022-12-18T07:49:42;-3.90;99.90
6110;DHT22;3085;49.444;11.054;2022-12-18T07:52:09;-3.90;99.90
6110;DHT22;3085;49.444;11.054;2022-12-18T07:54:37;-3.80;99.90
6110;DHT22;3085;49.444;11.054;2022-12-18T07:57:04;-3.90;99.90
6110;DHT22;3085;49.444;11.054;2022-12-18T07:59:32;-3.70;99.90
6110;DHT22;3085;49.444;11.054;2022-12-18T08:02:00;-3.50;99.90
6110;DHT22;3085;49.444;11.054;2022-12-18T08:04:27;-3.50;99.90
6110;DHT22;3085;49.444;11.054;2022-12-18T08:06:54;-3.50;99.90
6110;DHT22;3085;49.444;11.054;2022-12-18T08:09:21;-3.60;99.90
6110;DHT22;3085;49.444;11.054;2022-12-18T08:11:47;-3.60;99.90
6110;DHT22;3085;49.444;11.054;2022-12-18T08:14:14;-3.50;99.90
6110;DHT22;3085;49.444;11.054;2022-12-18T08:16:41;-3.40;99.90
6110;DHT22;3085;49.444;11.054;2022-12-18T08:19:09;-3.40;99.90
6110;DHT22;3085;49.444;11.054;2022-12-18T08:21:37;-3.40;99.90
6110;DHT22;3085;49.444;11.054;2022-12-18T08:24:04;-3.20;99.90
6110;DHT22;3085;49.444;11.054;2022-12-18T08:26:34;-3.20;99.90
6110;DHT22;3085;49.444;11.054;2022-12-18T08:29:01;-3.10;99.90
6110;DHT22;3085;49.444;11.054;2022-12-18T08:31:29;-2.80;99.90
6110;DHT22;3085;49.444;11.054;2022-12-18T08:33:57;-2.60;99.90
6110;DHT22;3085;49.444;11.054;2022-12-18T08:36:25;-2.70;99.90
6110;DHT22;3085;49.444;11.054;2022-12-18T08:38:52;-2.80;99.90
6110;DHT22;3085;49.444;11.054;2022-12-18T08:41:19;-2.90;99.90
6110;DHT22;3085;49.444;11.054;2022-12-18T08:43:46;-2.90;99.90
6110;DHT22;3085;49.444;11.054;2022-12-18T08:46:35;-2.90;99.90
6110;DHT22;3085;49.444;11.054;2022-12-18T08:49:02;-2.90;99.90
6110;DHT22;3085;49.444;11.054;2022-12-18T08:51:31;-2.90;99.90
6110;DHT22;3085;49.444;11.054;2022-12-18T08:53:58;-2.90;99.90
6110;DHT22;3085;49.444;11.054;2022-12-18T08:56:25;-2.80;99.90
6110;DHT22;3085;49.444;11.054;2022-12-18T08:58:53;-2.80;99.90
6110;DHT22;3085;49.444;11.054;2022-12-18T09:01:20;-2.80;99.90
6110;DHT22;3085;49.444;11.054;2022-12-18T09:03:47;-2.80;99.90
6110;DHT22;3085;49.444;11.054;2022-12-18T09:06:15;-2.80;99.90
6110;DHT22;3085;49.444;11.054;2022-12-18T09:08:44;-2.80;99.90
6110;DHT22;3085;49.444;11.054;2022-12-18T09:11:13;-2.70;99.90
6110;DHT22;3085;49.444;11.054;2022-12-18T09:13:40;-2.70;99.90
6110;DHT22;3085;49.444;11.054;2022-12-18T09:16:07;-2.80;99.90
6110;DHT22;3085;49.444;11.054;2022-12-18T09:18:34;-2.80;99.90
6110;DHT22;3085;49.444;11.054;2022-12-18T09:21:08;-2.80;99.90
6110;DHT22;3085;49.444;11.054;2022-12-18T09:23:35;-2.70;99.90
6110;DHT22;3085;49.444;11.054;2022-12-18T09:26:03;-2.80;99.90
6110;DHT22;3085;49.444;11.054;2022-12-18T09:28:30;-2.80;99.90
6110;DHT22;3085;49.444;11.054;2022-12-18T09:30:57;-2.70;99.90
6110;DHT22;3085;49.444;11.054;2022-12-18T09:33:24;-2.60;99.90
6110;DHT22;3085;49.444;11.054;2022-12-18T09:35:51;-2.60;99.90
6110;DHT22;3085;49.444;11.054;2022-12-18T09:38:19;-2.50;99.90
6110;DHT22;3085;49.444;11.054;2022-12-18T09:40:51;-2.40;99.90
6110;DHT22;3085;49.444;11.054;2022-12-18T09:43:24;-2.40;99.90
6110;DHT22;3085;49.444;11.054;2022-12-18T09:45:56;-2.40;99.90
6110;DHT22;3085;49.444;11.054;2022-12-18T09:48:28;-2.40;99.90
6110;DHT22;3085;49.444;11.054;2022-12-18T09:51:02;-2.50;99.90
6110;DHT22;3085;49.444;11.054;2022-12-18T09:53:32;-2.60;99.90
6110;DHT22;3085;49.444;11.054;2022-12-18T09:56:04;-2.80;99.90
6110;DHT22;3085;49.444;11.054;2022-12-18T09:58:37;-2.50;99.90
6110;DHT22;3085;49.444;11.054;2022-12-18T10:01:10;-2.60;99.90
6110;DHT22;3085;49.444;11.054;2022-12-18T10:03:38;-2.50;99.90
6110;DHT22;3085;49.444;11.054;2022-12-18T10:06:11;-2.50;99.90
6110;DHT22;3085;49.444;11.054;2022-12-18T10:08:44;-2.40;99.90
6110;DHT22;3085;49.444;11.054;2022-12-18T10:11:29;-2.40;99.90
6110;DHT22;3085;49.444;11.054;2022-12-18T10:14:03;-2.40;99.90
6110;DHT22;3085;49.444;11.054;2022-12-18T10:16:39;-2.40;99.90
6110;DHT22;3085;49.444;11.054;2022-12-18T10:19:18;-2.10;99.90
6110;DHT22;3085;49.444;11.054;2022-12-18T10:21:54;-2.40;99.90
6110;DHT22;3085;49.444;11.054;2022-12-18T10:24:28;-2.30;99.90
6110;DHT22;3085;49.444;11.054;2022-12-18T10:27:04;-2.30;99.90
6110;DHT22;3085;49.444;11.054;2022-12-18T10:29:37;-2.30;99.90
6110;DHT22;3085;49.444;11.054;2022-12-18T10:32:04;-2.30;99.90
6110;DHT22;3085;49.444;11.054;2022-12-18T10:34:31;-2.20;99.90
6110;DHT22;3085;49.444;11.054;2022-12-18T10:37:01;-2.20;99.90
6110;DHT22;3085;49.444;11.054;2022-12-18T10:39:28;-2.20;99.90
6110;DHT22;3085;49.444;11.054;2022-12-18T10:42:09;-2.10;99.90
6110;DHT22;3085;49.444;11.054;2022-12-18T10:44:38;-2.00;99.90
6110;DHT22;3085;49.444;11.054;2022-12-18T10:47:12;-1.90;99.90
6110;DHT22;3085;49.444;11.054;2022-12-18T10:49:47;-2.00;99.90
6110;DHT22;3085;49.444;11.054;2022-12-18T10:52:17;-1.90;99.90
6110;DHT22;3085;49.444;11.054;2022-12-18T10:54:49;-2.10;99.90
6110;DHT22;3085;49.444;11.054;2022-12-18T10:57:20;-2.10;99.90
6110;DHT22;3085;49.444;11.054;2022-12-18T10:59:58;-1.60;99.90
6110;DHT22;3085;49.444;11.054;2022-12-18T11:02:28;-2.00;99.90
6110;DHT22;3085;49.444;11.054;2022-12-18T11:04:59;-2.00;99.90
6110;DHT22;3085;49.444;11.054;2022-12-18T11:07:47;-2.00;99.90
6110;DHT22;3085;49.444;11.054;2022-12-18T11:10:16;-2.10;99.90
6110;DHT22;3085;49.444;11.054;2022-12-18T11:12:44;-2.00;99.90
6110;DHT22;3085;49.444;11.054;2022-12-18T11:15:16;-1.90;99.90
6110;DHT22;3085;49.444;11.054;2022-12-18T11:17:48;-1.80;99.90
6110;DHT22;3085;49.444;11.054;2022-12-18T11:20:30;-1.90;99.90
6110;DHT22;3085;49.444;11.054;2022-12-18T11:22:59;-2.00;99.90
6110;DHT22;3085;49.444;11.054;2022-12-18T11:25:28;-1.90;99.90
6110;DHT22;3085;49.444;11.054;2022-12-18T11:27:57;-2.00;99.90
6110;DHT22;3085;49.444;11.054;2022-12-18T11:30:27;-1.90;99.90
6110;DHT22;3085;49.444;11.054;2022-12-18T11:33:03;-1.80;99.90
6110;DHT22;3085;49.444;11.054;2022-12-18T11:35:39;-1.80;99.90
6110;DHT22;3085;49.444;11.054;2022-12-18T11:38:17;-1.90;99.90
6110;DHT22;3085;49.444;11.054;2022-12-18T11:40:49;-1.80;99.90
6110;DHT22;3085;49.444;11.054;2022-12-18T11:43:21;-1.90;99.90
6110;DHT22;3085;49.444;11.054;2022-12-18T11:45:53;-1.90;99.90
6110;DHT22;3085;49.444;11.054;2022-12-18T11:48:23;-1.90;99.90
6110;DHT22;3085;49.444;11.054;2022-12-18T11:50:59;-1.90;99.90
6110;DHT22;3085;49.444;11.054;2022-12-18T11:53:27;-2.00;99.90
6110;DHT22;3085;49.444;11.054;2022-12-18T11:56:04;-2.00;99.90
6110;DHT22;3085;49.444;11.054;2022-12-18T11:58:44;-2.10;99.90
6110;DHT22;3085;49.444;11.054;2022-12-18T12:01:25;-1.90;99.90
6110;DHT22;3085;49.444;11.054;2022-12-18T12:04:26;-1.80;99.90
6110;DHT22;3085;49.444;11.054;2022-12-18T12:07:04;-1.80;99.90
6110;DHT22;3085;49.444;11.054;2022-12-18T12:09:37;-1.70;99.90
6110;DHT22;3085;49.444;11.054;2022-12-18T12:12:18;-1.80;99.90
6110;DHT22;3085;49.444;11.054;2022-12-18T12:14:59;-1.80;99.90
6110;DHT22;3085;49.444;11.054;2022-12-18T12:17:35;-1.60;99.90
6110;DHT22;3085;49.444;11.054;2022-12-18T12:20:11;-1.60;99.90
6110;DHT22;3085;49.444;11.054;2022-12-18T12:22:45;-1.70;99.90
6110;DHT22;3085;49.444;11.054;2022-12-18T12:25:28;-1.60;99.90
6110;DHT22;3085;49.444;11.054;2022-12-18T12:28:06;-1.60;99.90
6110;DHT22;3085;49.444;11.054;2022-12-18T12:30:47;-1.50;99.90
6110;DHT22;3085;49.444;11.054;2022-12-18T12:33:28;-1.50;99.90
6110;DHT22;3085;49.444;11.054;2022-12-18T12:36:06;-1.70;99.90
6110;DHT22;3085;49.444;11.054;2022-12-18T12:38:40;-1.60;99.90
6110;DHT22;3085;49.444;11.054;2022-12-18T12:41:11;-1.60;99.90
6110;DHT22;3085;49.444;11.054;2022-12-18T12:44:02;-1.60;99.90
6110;DHT22;3085;49.444;11.054;2022-12-18T12:46:32;-1.60;99.90
6110;DHT22;3085;49.444;11.054;2022-12-18T12:49:03;-1.70;99.90
6110;DHT22;3085;49.444;11.054;2022-12-18T12:51:34;-1.80;99.90
6110;DHT22;3085;49.444;11.054;2022-12-18T12:54:05;-1.60;99.90
6110;DHT22;3085;49.444;11.054;2022-12-18T12:56:38;-1.50;99.90
6110;DHT22;3085;49.444;11.054;2022-12-18T12:59:13;-1.60;99.90
6110;DHT22;3085;49.444;11.054;2022-12-18T13:01:47;-1.60;99.90
6110;DHT22;3085;49.444;11.054;2022-12-18T13:04:23;-1.50;99.90
6110;DHT22;3085;49.444;11.054;2022-12-18T13:06:58;-1.50;99.90
6110;DHT22;3085;49.444;11.054;2022-12-18T13:09:30;-1.40;99.90
6110;DHT22;3085;49.444;11.054;2022-12-18T13:12:02;-1.40;99.90
6110;DHT22;3085;49.444;11.054;2022-12-18T13:14:47;-1.50;99.90
6110;DHT22;3085;49.444;11.054;2022-12-18T13:17:28;-1.50;99.90
6110;DHT22;3085;49.444;11.054;2022-12-18T13:20:11;-1.50;99.90
6110;DHT22;3085;49.444;11.054;2022-12-18T13:22:42;-1.50;99.90
6110;DHT22;3085;49.444;11.054;2022-12-18T13:25:31;-1.40;99.90
6110;DHT22;3085;49.444;11.054;2022-12-18T13:28:05;-1.30;99.90
6110;DHT22;3085;49.444;11.054;2022-12-18T13:30:58;-1.40;99.90
6110;DHT22;3085;49.444;11.054;2022-12-18T13:33:49;-1.40;99.90
6110;DHT22;3085;49.444;11.054;2022-12-18T13:36:29;-1.40;99.90
6110;DHT22;3085;49.444;11.054;2022-12-18T13:39:11;-1.40;99.90
6110;DHT22;3085;49.444;11.054;2022-12-18T13:41:48;-1.40;99.90
6110;DHT22;3085;49.444;11.054;2022-12-18T13:44:25;-1.10;99.90
6110;DHT22;3085;49.444;11.054;2022-12-18T13:46:52;-1.50;99.90
6110;DHT22;3085;49.444;11.054;2022-12-18T13:49:22;-1.50;99.90
6110;DHT22;3085;49.444;11.054;2022-12-18T13:51:53;-1.50;99.90
6110;DHT22;3085;49.444;11.054;2022-12-18T13:54:28;-1.50;99.90
6110;DHT22;3085;49.444;11.054;2022-12-18T13:56:56;-1.50;99.90
6110;DHT22;3085;49.444;11.054;2022-12-18T13:59:25;-1.50;99.90
6110;DHT22;3085;49.444;11.054;2022-12-18T14:01:54;-1.50;99.90
6110;DHT22;3085;49.444;11.054;2022-12-18T14:04:24;-1.40;99.90
6110;DHT22;3085;49.444;11.054;2022-12-18T14:06:56;-1.50;99.90
6110;DHT22;3085;49.444;11.054;2022-12-18T14:09:26;-1.60;99.90
6110;DHT22;3085;49.444;11.054;2022-12-18T14:11:54;-1.60;99.90
6110;DHT22;3085;49.444;11.054;2022-12-18T14:14:44;-1.40;99.90
6110;DHT22;3085;49.444;11.054;2022-12-18T14:17:13;-1.60;99.90
6110;DHT22;3085;49.444;11.054;2022-12-18T14:19:42;-1.70;99.90
6110;DHT22;3085;49.444;11.054;2022-12-18T14:22:19;-1.80;99.90
6110;DHT22;3085;49.444;11.054;2022-12-18T14:24:47;-1.80;99.90
6110;DHT22;3085;49.444;11.054;2022-12-18T14:27:22;-1.80;99.90
6110;DHT22;3085;49.444;11.054;2022-12-18T14:29:50;-1.80;99.90
6110;DHT22;3085;49.444;11.054;2022-12-18T14:32:18;-1.80;99.90
6110;DHT22;3085;49.444;11.054;2022-12-18T14:34:46;-1.90;99.90
6110;DHT22;3085;49.444;11.054;2022-12-18T14:37:15;-1.80;99.90
6110;DHT22;3085;49.444;11.054;2022-12-18T14:39:57;-1.70;99.90
6110;DHT22;3085;49.444;11.054;2022-12-18T14:42:25;-1.70;99.90
6110;DHT22;3085;49.444;11.054;2022-12-18T14:47:54;-1.70;99.90
6110;DHT22;3085;49.444;11.054;2022-12-18T14:50:21;-1.80;99.90
6110;DHT22;3085;49.444;11.054;2022-12-18T14:52:48;-1.80;99.90
6110;DHT22;3085;49.444;11.054;2022-12-18T14:55:18;-1.80;99.90
6110;DHT22;3085;49.444;11.054;2022-12-18T14:57:49;-1.80;99.90
6110;DHT22;3085;49.444;11.054;2022-12-18T15:00:19;-1.80;99.90
6110;DHT22;3085;49.444;11.054;2022-12-18T15:02:49;-2.00;99.90
6110;DHT22;3085;49.444;11.054;2022-12-18T15:05:20;-2.20;99.90
6110;DHT22;3085;49.444;11.054;2022-12-18T15:07:53;-1.90;99.90
6110;DHT22;3085;49.444;11.054;2022-12-18T15:10:31;-2.00;99.90
6110;DHT22;3085;49.444;11.054;2022-12-18T15:13:09;-1.90;99.90
6110;DHT22;3085;49.444;11.054;2022-12-18T15:15:53;-1.90;99.90
6110;DHT22;3085;49.444;11.054;2022-12-18T15:18:23;-2.00;99.90
6110;DHT22;3085;49.444;11.054;2022-12-18T15:20:53;-2.00;99.90
6110;DHT22;3085;49.444;11.054;2022-12-18T15:23:23;-2.10;99.90
6110;DHT22;3085;49.444;11.054;2022-12-18T15:25:57;-2.20;99.90
6110;DHT22;3085;49.444;11.054;2022-12-18T15:28:26;-2.10;99.90
6110;DHT22;3085;49.444;11.054;2022-12-18T15:31:03;-2.20;99.90
6110;DHT22;3085;49.444;11.054;2022-12-18T15:33:33;-2.20;99.90
6110;DHT22;3085;49.444;11.054;2022-12-18T15:36:02;-2.20;99.90
6110;DHT22;3085;49.444;11.054;2022-12-18T15:38:29;-2.30;99.90
6110;DHT22;3085;49.444;11.054;2022-12-18T15:40:58;-2.20;99.90
6110;DHT22;3085;49.444;11.054;2022-12-18T15:43:26;-2.20;99.90
6110;DHT22;3085;49.444;11.054;2022-12-18T15:46:03;-2.40;99.90
6110;DHT22;3085;49.444;11.054;2022-12-18T15:48:33;-2.20;99.90
6110;DHT22;3085;49.444;11.054;2022-12-18T15:51:01;-2.00;99.90
6110;DHT22;3085;49.444;11.054;2022-12-18T15:53:30;-2.20;99.90
6110;DHT22;3085;49.444;11.054;2022-12-18T15:55:59;-2.30;99.90
6110;DHT22;3085;49.444;11.054;2022-12-18T15:58:43;-2.40;99.90
6110;DHT22;3085;49.444;11.054;2022-12-18T16:01:25;-2.30;99.90
6110;DHT22;3085;49.444;11.054;2022-12-18T16:03:52;-2.40;99.90
6110;DHT22;3085;49.444;11.054;2022-12-18T16:06:19;-2.40;99.90
6110;DHT22;3085;49.444;11.054;2022-12-18T16:08:46;-2.40;99.90
6110;DHT22;3085;49.444;11.054;2022-12-18T16:11:21;-2.40;99.90